sensor_id;sensor_type;location;lat;lon;timestamp;temperature;humidity
3548;DHT22;1788;49.400;11.092;2022-12-11T00:01:17;3.60;59.80
3548;DHT22;1788;49.400;11.092;2022-12-11T00:03:44;3.60;59.70
3548;DHT22;1788;49.400;11.092;2022-12-11T00:06:11;3.60;59.70
3548;DHT22;1788;49.400;11.092;2022-12-11T00:08:37;3.60;59.60
3548;DHT22;1788;49.400;11.092;2022-12-11T00:11:04;3.60;59.60
3548;DHT22;1788;49.400;11.092;2022-12-11T00:13:31;3.60;59.60
3548;DHT22;1788;49.400;11.092;2022-12-11T00:15:58;3.60;59.60
3548;DHT22;1788;49.400;11.092;2022-12-11T00:18:25;3.60;59.60
3548;DHT22;1788;49.400;11.092;2022-12-11T00:20:51;3.60;59.60
3548;DHT22;1788;49.400;11.092;2022-12-11T00:23:18;3.60;59.50
3548;DHT22;1788;49.400;11.092;2022-12-11T00:25:49;3.60;59.50
3548;DHT22;1788;49.400;11.092;2022-12-11T00:28:16;3.60;59.50
3548;DHT22;1788;49.400;11.092;2022-12-11T00:30:43;3.60;59.50
3548;DHT22;1788;49.400;11.092;2022-12-11T00:33:10;3.60;59.50
3548;DHT22;1788;49.400;11.092;2022-12-11T00:38:03;3.60;59.50
3548;DHT22;1788;49.400;11.092;2022-12-11T00:40:32;3.50;59.40
3548;DHT22;1788;49.400;11.092;2022-12-11T00:42:57;3.60;59.80
3548;DHT22;1788;49.400;11.092;2022-12-11T00:45:24;3.60;59.50
3548;DHT22;1788;49.400;11.092;2022-12-11T00:47:51;3.60;59.20
3548;DHT22;1788;49.400;11.092;2022-12-11T00:50:18;3.60;59.50
3548;DHT22;1788;49.400;11.092;2022-12-11T00:52:45;3.60;59.50
3548;DHT22;1788;49.400;11.092;2022-12-11T00:55:12;3.50;59.50
3548;DHT22;1788;49.400;11.092;2022-12-11T00:57:38;3.50;59.50
3548;DHT22;1788;49.400;11.092;2022-12-11T01:00:05;3.50;59.50
3548;DHT22;1788;49.400;11.092;2022-12-11T01:02:33;3.30;59.50
3548;DHT22;1788;49.400;11.092;2022-12-11T01:05:00;3.30;59.50
3548;DHT22;1788;49.400;11.092;2022-12-11T01:07:27;3.30;59.60
3548;DHT22;1788;49.400;11.092;2022-12-11T01:09:53;3.20;59.60
3548;DHT22;1788;49.400;11.092;2022-12-11T01:12:20;3.20;59.70
3548;DHT22;1788;49.400;11.092;2022-12-11T01:14:47;3.10;59.90
3548;DHT22;1788;49.400;11.092;2022-12-11T01:17:14;3.10;59.90
3548;DHT22;1788;49.400;11.092;2022-12-11T01:19:41;3.10;60.00
3548;DHT22;1788;49.400;11.092;2022-12-11T01:22:08;3.10;60.00
3548;DHT22;1788;49.400;11.092;2022-12-11T01:24:36;3.10;60.60
3548;DHT22;1788;49.400;11.092;2022-12-11T01:27:02;3.10;60.00
3548;DHT22;1788;49.400;11.092;2022-12-11T01:29:29;3.10;60.00
3548;DHT22;1788;49.400;11.092;2022-12-11T01:31:55;3.20;60.10
3548;DHT22;1788;49.400;11.092;2022-12-11T01:34:22;3.10;60.00
3548;DHT22;1788;49.400;11.092;2022-12-11T01:36:50;3.10;60.10
3548;DHT22;1788;49.400;11.092;2022-12-11T01:39:16;3.10;60.00
3548;DHT22;1788;49.400;11.092;2022-12-11T01:41:43;3.20;60.30
3548;DHT22;1788;49.400;11.092;2022-12-11T01:46:37;3.20;60.30
3548;DHT22;1788;49.400;11.092;2022-12-11T01:51:31;3.20;60.20
3548;DHT22;1788;49.400;11.092;2022-12-11T01:54:00;3.20;60.20
3548;DHT22;1788;49.400;11.092;2022-12-11T01:56:24;3.20;60.20
3548;DHT22;1788;49.400;11.092;2022-12-11T01:58:53;3.10;60.10
3548;DHT22;1788;49.400;11.092;2022-12-11T02:01:21;3.10;60.10
3548;DHT22;1788;49.400;11.092;2022-12-11T02:03:45;3.10;60.10
3548;DHT22;1788;49.400;11.092;2022-12-11T02:08:38;3.10;60.20
3548;DHT22;1788;49.400;11.092;2022-12-11T02:11:08;3.20;60.30
3548;DHT22;1788;49.400;11.092;2022-12-11T02:16:01;3.10;60.30
3548;DHT22;1788;49.400;11.092;2022-12-11T02:23:23;3.20;60.50
3548;DHT22;1788;49.400;11.092;2022-12-11T02:30:38;3.20;60.60
3548;DHT22;1788;49.400;11.092;2022-12-11T02:33:05;3.20;60.80
3548;DHT22;1788;49.400;11.092;2022-12-11T02:38:00;3.20;60.80
3548;DHT22;1788;49.400;11.092;2022-12-11T02:40:27;3.20;60.80
3548;DHT22;1788;49.400;11.092;2022-12-11T02:42:53;3.20;60.90
3548;DHT22;1788;49.400;11.092;2022-12-11T02:45:20;3.20;61.80
3548;DHT22;1788;49.400;11.092;2022-12-11T02:47:46;3.20;61.00
3548;DHT22;1788;49.400;11.092;2022-12-11T02:50:14;3.20;61.00
3548;DHT22;1788;49.400;11.092;2022-12-11T02:52:40;3.20;61.00
3548;DHT22;1788;49.400;11.092;2022-12-11T02:55:08;3.20;61.20
3548;DHT22;1788;49.400;11.092;2022-12-11T03:00:00;3.20;61.00
3548;DHT22;1788;49.400;11.092;2022-12-11T03:02:28;3.20;61.10
3548;DHT22;1788;49.400;11.092;2022-12-11T03:04:54;3.20;61.10
3548;DHT22;1788;49.400;11.092;2022-12-11T03:09:52;3.20;61.10
3548;DHT22;1788;49.400;11.092;2022-12-11T03:12:20;3.20;61.20
3548;DHT22;1788;49.400;11.092;2022-12-11T03:14:46;3.20;61.20
3548;DHT22;1788;49.400;11.092;2022-12-11T03:17:14;3.20;61.20
3548;DHT22;1788;49.400;11.092;2022-12-11T03:24:37;3.10;61.20
3548;DHT22;1788;49.400;11.092;2022-12-11T03:27:02;3.10;61.20
3548;DHT22;1788;49.400;11.092;2022-12-11T03:31:56;3.10;61.10
3548;DHT22;1788;49.400;11.092;2022-12-11T03:34:24;3.10;61.10
3548;DHT22;1788;49.400;11.092;2022-12-11T03:36:49;3.10;61.20
3548;DHT22;1788;49.400;11.092;2022-12-11T03:39:17;3.00;61.20
3548;DHT22;1788;49.400;11.092;2022-12-11T03:41:43;3.10;61.20
3548;DHT22;1788;49.400;11.092;2022-12-11T03:44:08;3.10;61.20
3548;DHT22;1788;49.400;11.092;2022-12-11T03:46:35;3.10;61.20
3548;DHT22;1788;49.400;11.092;2022-12-11T03:49:03;3.10;61.10
3548;DHT22;1788;49.400;11.092;2022-12-11T03:51:29;3.10;61.00
3548;DHT22;1788;49.400;11.092;2022-12-11T03:53:56;3.10;61.00
3548;DHT22;1788;49.400;11.092;2022-12-11T03:56:23;3.10;61.10
3548;DHT22;1788;49.400;11.092;2022-12-11T03:58:50;3.10;61.10
3548;DHT22;1788;49.400;11.092;2022-12-11T04:01:18;3.10;61.00
3548;DHT22;1788;49.400;11.092;2022-12-11T04:03:44;3.10;61.00
3548;DHT22;1788;49.400;11.092;2022-12-11T04:06:12;3.10;60.90
3548;DHT22;1788;49.400;11.092;2022-12-11T04:08:38;3.10;61.00
3548;DHT22;1788;49.400;11.092;2022-12-11T04:11:06;3.10;61.00
3548;DHT22;1788;49.400;11.092;2022-12-11T04:13:32;3.00;60.90
3548;DHT22;1788;49.400;11.092;2022-12-11T04:15:59;3.00;61.00
3548;DHT22;1788;49.400;11.092;2022-12-11T04:18:26;3.00;61.10
3548;DHT22;1788;49.400;11.092;2022-12-11T04:20:53;3.00;61.10
3548;DHT22;1788;49.400;11.092;2022-12-11T04:23:19;2.90;61.10
3548;DHT22;1788;49.400;11.092;2022-12-11T04:25:45;2.90;61.20
3548;DHT22;1788;49.400;11.092;2022-12-11T04:28:12;2.90;61.20
3548;DHT22;1788;49.400;11.092;2022-12-11T04:30:39;2.90;61.10
3548;DHT22;1788;49.400;11.092;2022-12-11T04:33:06;2.90;61.10
3548;DHT22;1788;49.400;11.092;2022-12-11T04:35:34;2.80;61.20
3548;DHT22;1788;49.400;11.092;2022-12-11T04:38:00;2.80;61.10
3548;DHT22;1788;49.400;11.092;2022-12-11T04:40:27;2.80;61.10
3548;DHT22;1788;49.400;11.092;2022-12-11T04:42:53;2.80;61.20
3548;DHT22;1788;49.400;11.092;2022-12-11T04:45:20;2.80;61.20
3548;DHT22;1788;49.400;11.092;2022-12-11T04:47:46;2.90;61.30
3548;DHT22;1788;49.400;11.092;2022-12-11T04:50:13;2.80;61.10
3548;DHT22;1788;49.400;11.092;2022-12-11T04:52:40;2.80;61.10
3548;DHT22;1788;49.400;11.092;2022-12-11T04:55:07;2.90;61.10
3548;DHT22;1788;49.400;11.092;2022-12-11T04:57:34;2.80;61.00
3548;DHT22;1788;49.400;11.092;2022-12-11T05:00:01;2.80;61.00
3548;DHT22;1788;49.400;11.092;2022-12-11T05:02:28;2.80;61.40
3548;DHT22;1788;49.400;11.092;2022-12-11T05:04:54;2.80;61.10
3548;DHT22;1788;49.400;11.092;2022-12-11T05:07:22;2.80;61.90
3548;DHT22;1788;49.400;11.092;2022-12-11T05:09:48;2.80;61.10
3548;DHT22;1788;49.400;11.092;2022-12-11T05:12:15;2.80;61.00
3548;DHT22;1788;49.400;11.092;2022-12-11T05:14:41;2.80;60.90
3548;DHT22;1788;49.400;11.092;2022-12-11T05:17:09;2.80;60.70
3548;DHT22;1788;49.400;11.092;2022-12-11T05:19:36;2.80;60.70
3548;DHT22;1788;49.400;11.092;2022-12-11T05:22:02;2.80;60.60
3548;DHT22;1788;49.400;11.092;2022-12-11T05:24:30;2.70;60.50
3548;DHT22;1788;49.400;11.092;2022-12-11T05:26:57;2.70;60.40
3548;DHT22;1788;49.400;11.092;2022-12-11T05:29:23;2.70;60.50
3548;DHT22;1788;49.400;11.092;2022-12-11T05:31:50;2.70;60.50
3548;DHT22;1788;49.400;11.092;2022-12-11T05:34:17;2.70;60.40
3548;DHT22;1788;49.400;11.092;2022-12-11T05:36:46;2.70;60.60
3548;DHT22;1788;49.400;11.092;2022-12-11T05:39:13;2.70;60.40
3548;DHT22;1788;49.400;11.092;2022-12-11T05:41:40;2.70;60.40
3548;DHT22;1788;49.400;11.092;2022-12-11T05:44:08;2.60;60.30
3548;DHT22;1788;49.400;11.092;2022-12-11T05:46:34;2.60;60.40
3548;DHT22;1788;49.400;11.092;2022-12-11T05:49:00;2.60;60.40
3548;DHT22;1788;49.400;11.092;2022-12-11T05:51:27;2.60;60.40
3548;DHT22;1788;49.400;11.092;2022-12-11T05:53:54;2.60;60.40
3548;DHT22;1788;49.400;11.092;2022-12-11T05:56:22;2.60;60.40
3548;DHT22;1788;49.400;11.092;2022-12-11T05:58:47;2.50;60.40
3548;DHT22;1788;49.400;11.092;2022-12-11T06:01:16;2.50;60.50
3548;DHT22;1788;49.400;11.092;2022-12-11T06:03:40;2.50;60.50
3548;DHT22;1788;49.400;11.092;2022-12-11T06:06:07;2.50;60.60
3548;DHT22;1788;49.400;11.092;2022-12-11T06:08:34;2.40;60.60
3548;DHT22;1788;49.400;11.092;2022-12-11T06:11:01;2.40;60.60
3548;DHT22;1788;49.400;11.092;2022-12-11T06:13:28;2.40;60.50
3548;DHT22;1788;49.400;11.092;2022-12-11T06:15:58;2.40;60.50
3548;DHT22;1788;49.400;11.092;2022-12-11T06:18:22;2.40;60.40
3548;DHT22;1788;49.400;11.092;2022-12-11T06:20:48;2.40;60.30
3548;DHT22;1788;49.400;11.092;2022-12-11T06:23:15;2.40;60.10
3548;DHT22;1788;49.400;11.092;2022-12-11T06:25:43;2.30;59.90
3548;DHT22;1788;49.400;11.092;2022-12-11T06:28:09;2.30;59.90
3548;DHT22;1788;49.400;11.092;2022-12-11T06:30:36;2.30;59.80
3548;DHT22;1788;49.400;11.092;2022-12-11T06:33:03;2.20;59.70
3548;DHT22;1788;49.400;11.092;2022-12-11T06:35:29;2.20;59.80
3548;DHT22;1788;49.400;11.092;2022-12-11T06:37:56;2.20;59.80
3548;DHT22;1788;49.400;11.092;2022-12-11T06:40:23;2.10;59.70
3548;DHT22;1788;49.400;11.092;2022-12-11T06:42:49;2.10;59.70
3548;DHT22;1788;49.400;11.092;2022-12-11T06:45:16;2.00;59.60
3548;DHT22;1788;49.400;11.092;2022-12-11T06:47:47;2.00;59.50
3548;DHT22;1788;49.400;11.092;2022-12-11T06:50:14;1.90;60.10
3548;DHT22;1788;49.400;11.092;2022-12-11T06:52:41;1.90;59.50
3548;DHT22;1788;49.400;11.092;2022-12-11T06:55:07;1.80;59.40
3548;DHT22;1788;49.400;11.092;2022-12-11T06:57:34;1.80;59.50
3548;DHT22;1788;49.400;11.092;2022-12-11T07:00:01;1.70;59.50
3548;DHT22;1788;49.400;11.092;2022-12-11T07:02:27;1.70;59.50
3548;DHT22;1788;49.400;11.092;2022-12-11T07:04:55;1.60;59.60
3548;DHT22;1788;49.400;11.092;2022-12-11T07:07:21;1.60;59.60
3548;DHT22;1788;49.400;11.092;2022-12-11T07:09:48;1.60;59.70
3548;DHT22;1788;49.400;11.092;2022-12-11T07:12:15;1.60;59.70
3548;DHT22;1788;49.400;11.092;2022-12-11T07:14:41;1.60;59.70
3548;DHT22;1788;49.400;11.092;2022-12-11T07:17:08;1.50;59.60
3548;DHT22;1788;49.400;11.092;2022-12-11T07:19:35;1.50;60.40
3548;DHT22;1788;49.400;11.092;2022-12-11T07:22:02;1.50;59.70
3548;DHT22;1788;49.400;11.092;2022-12-11T07:24:30;1.50;59.70
3548;DHT22;1788;49.400;11.092;2022-12-11T07:26:56;1.50;59.70
3548;DHT22;1788;49.400;11.092;2022-12-11T07:29:24;1.50;59.70
3548;DHT22;1788;49.400;11.092;2022-12-11T07:31:51;1.50;59.70
3548;DHT22;1788;49.400;11.092;2022-12-11T07:34:18;1.50;59.60
3548;DHT22;1788;49.400;11.092;2022-12-11T07:36:46;1.50;59.70
3548;DHT22;1788;49.400;11.092;2022-12-11T07:39:13;1.50;59.70
3548;DHT22;1788;49.400;11.092;2022-12-11T07:41:40;1.50;60.60
3548;DHT22;1788;49.400;11.092;2022-12-11T07:44:07;1.50;59.90
3548;DHT22;1788;49.400;11.092;2022-12-11T07:46:33;1.60;60.00
3548;DHT22;1788;49.400;11.092;2022-12-11T07:49:00;1.60;60.10
3548;DHT22;1788;49.400;11.092;2022-12-11T07:53:55;1.70;60.20
3548;DHT22;1788;49.400;11.092;2022-12-11T07:56:21;1.70;60.20
3548;DHT22;1788;49.400;11.092;2022-12-11T07:58:47;1.70;60.30
3548;DHT22;1788;49.400;11.092;2022-12-11T08:03:41;1.90;60.40
3548;DHT22;1788;49.400;11.092;2022-12-11T08:06:08;1.90;60.40
3548;DHT22;1788;49.400;11.092;2022-12-11T08:08:36;2.00;60.30
3548;DHT22;1788;49.400;11.092;2022-12-11T08:11:03;2.00;60.30
3548;DHT22;1788;49.400;11.092;2022-12-11T08:13:29;2.00;60.30
3548;DHT22;1788;49.400;11.092;2022-12-11T08:15:56;2.00;60.30
3548;DHT22;1788;49.400;11.092;2022-12-11T08:18:23;2.10;60.40
3548;DHT22;1788;49.400;11.092;2022-12-11T08:20:50;2.20;60.30
3548;DHT22;1788;49.400;11.092;2022-12-11T08:23:17;2.20;60.30
3548;DHT22;1788;49.400;11.092;2022-12-11T08:25:44;2.30;60.20
3548;DHT22;1788;49.400;11.092;2022-12-11T08:28:11;2.30;60.10
3548;DHT22;1788;49.400;11.092;2022-12-11T08:30:38;2.40;60.10
3548;DHT22;1788;49.400;11.092;2022-12-11T08:33:04;2.40;60.10
3548;DHT22;1788;49.400;11.092;2022-12-11T08:35:30;2.50;60.20
3548;DHT22;1788;49.400;11.092;2022-12-11T08:37:57;2.50;60.20
3548;DHT22;1788;49.400;11.092;2022-12-11T08:40:25;2.70;60.20
3548;DHT22;1788;49.400;11.092;2022-12-11T08:42:52;2.70;60.20
3548;DHT22;1788;49.400;11.092;2022-12-11T08:45:18;2.80;60.20
3548;DHT22;1788;49.400;11.092;2022-12-11T08:47:45;2.90;60.10
3548;DHT22;1788;49.400;11.092;2022-12-11T08:50:13;3.00;59.90
3548;DHT22;1788;49.400;11.092;2022-12-11T08:52:39;2.90;59.70
3548;DHT22;1788;49.400;11.092;2022-12-11T08:55:07;3.00;59.70
3548;DHT22;1788;49.400;11.092;2022-12-11T08:57:35;3.00;59.70
3548;DHT22;1788;49.400;11.092;2022-12-11T09:00:02;2.90;59.70
3548;DHT22;1788;49.400;11.092;2022-12-11T09:02:28;3.00;59.70
3548;DHT22;1788;49.400;11.092;2022-12-11T09:04:55;3.00;59.60
3548;DHT22;1788;49.400;11.092;2022-12-11T09:07:22;3.00;59.60
3548;DHT22;1788;49.400;11.092;2022-12-11T09:09:50;3.00;59.60
3548;DHT22;1788;49.400;11.092;2022-12-11T09:12:16;3.00;59.60
3548;DHT22;1788;49.400;11.092;2022-12-11T09:14:48;3.00;59.60
3548;DHT22;1788;49.400;11.092;2022-12-11T09:17:15;3.00;60.00
3548;DHT22;1788;49.400;11.092;2022-12-11T09:19:42;3.00;59.50
3548;DHT22;1788;49.400;11.092;2022-12-11T09:22:09;3.00;59.50
3548;DHT22;1788;49.400;11.092;2022-12-11T09:24:36;3.00;59.50
3548;DHT22;1788;49.400;11.092;2022-12-11T09:27:03;3.00;59.50
3548;DHT22;1788;49.400;11.092;2022-12-11T09:29:29;3.00;59.40
3548;DHT22;1788;49.400;11.092;2022-12-11T09:31:56;3.00;59.30
3548;DHT22;1788;49.400;11.092;2022-12-11T09:34:22;2.90;59.20
3548;DHT22;1788;49.400;11.092;2022-12-11T09:36:49;2.90;59.30
3548;DHT22;1788;49.400;11.092;2022-12-11T09:39:16;2.90;59.30
3548;DHT22;1788;49.400;11.092;2022-12-11T09:46:36;2.90;59.30
3548;DHT22;1788;49.400;11.092;2022-12-11T09:49:04;2.90;59.30
3548;DHT22;1788;49.400;11.092;2022-12-11T09:53:58;2.90;59.10
3548;DHT22;1788;49.400;11.092;2022-12-11T10:01:19;3.00;59.10
3548;DHT22;1788;49.400;11.092;2022-12-11T10:06:14;3.00;59.00
3548;DHT22;1788;49.400;11.092;2022-12-11T10:18:27;3.00;59.00
3548;DHT22;1788;49.400;11.092;2022-12-11T10:20:54;3.00;59.00
3548;DHT22;1788;49.400;11.092;2022-12-11T10:25:51;3.10;59.10
3548;DHT22;1788;49.400;11.092;2022-12-11T10:28:16;3.00;59.00
3548;DHT22;1788;49.400;11.092;2022-12-11T10:30:46;3.20;59.40
3548;DHT22;1788;49.400;11.092;2022-12-11T10:40:30;3.30;58.90
3548;DHT22;1788;49.400;11.092;2022-12-11T10:42:56;3.30;58.90
3548;DHT22;1788;49.400;11.092;2022-12-11T10:45:24;3.60;59.60
3548;DHT22;1788;49.400;11.092;2022-12-11T10:48:00;4.20;60.70
3548;DHT22;1788;49.400;11.092;2022-12-11T10:52:45;4.90;61.10
3548;DHT22;1788;49.400;11.092;2022-12-11T10:57:39;5.20;59.10
3548;DHT22;1788;49.400;11.092;2022-12-11T11:00:07;5.20;58.70
3548;DHT22;1788;49.400;11.092;2022-12-11T11:05:00;5.10;
3548;DHT22;1788;49.400;11.092;2022-12-11T11:14:57;4.60;57.80
3548;DHT22;1788;49.400;11.092;2022-12-11T11:17:14;4.60;57.70
3548;DHT22;1788;49.400;11.092;2022-12-11T11:19:41;4.50;57.70
3548;DHT22;1788;49.400;11.092;2022-12-11T11:22:11;4.40;57.70
3548;DHT22;1788;49.400;11.092;2022-12-11T11:24:36;4.30;57.70
3548;DHT22;1788;49.400;11.092;2022-12-11T11:27:01;4.00;57.70
3548;DHT22;1788;49.400;11.092;2022-12-11T11:29:29;4.00;57.70
3548;DHT22;1788;49.400;11.092;2022-12-11T11:31:55;3.80;57.70
3548;DHT22;1788;49.400;11.092;2022-12-11T11:34:22;3.80;57.70
3548;DHT22;1788;49.400;11.092;2022-12-11T11:44:10;3.50;57.80
3548;DHT22;1788;49.400;11.092;2022-12-11T11:51:32;3.40;57.80
3548;DHT22;1788;49.400;11.092;2022-12-11T11:53:58;3.40;57.60
3548;DHT22;1788;49.400;11.092;2022-12-11T12:01:18;3.40;58.00
3548;DHT22;1788;49.400;11.092;2022-12-11T12:03:44;3.40;58.00
3548;DHT22;1788;49.400;11.092;2022-12-11T12:15:57;3.40;57.90
3548;DHT22;1788;49.400;11.092;2022-12-11T12:23:21;3.40;57.90
3548;DHT22;1788;49.400;11.092;2022-12-11T12:30:39;3.40;57.80
3548;DHT22;1788;49.400;11.092;2022-12-11T12:42:54;3.40;57.70
3548;DHT22;1788;49.400;11.092;2022-12-11T12:47:45;3.30;57.60
3548;DHT22;1788;49.400;11.092;2022-12-11T12:52:39;3.20;57.70
3548;DHT22;1788;49.400;11.092;2022-12-11T12:55:15;3.20;57.50
3548;DHT22;1788;49.400;11.092;2022-12-11T12:57:33;3.20;57.50
3548;DHT22;1788;49.400;11.092;2022-12-11T12:59:59;3.10;57.50
3548;DHT22;1788;49.400;11.092;2022-12-11T13:02:26;3.10;57.50
3548;DHT22;1788;49.400;11.092;2022-12-11T13:07:20;3.10;57.50
3548;DHT22;1788;49.400;11.092;2022-12-11T13:12:14;3.20;57.60
3548;DHT22;1788;49.400;11.092;2022-12-11T13:14:40;3.20;57.50
3548;DHT22;1788;49.400;11.092;2022-12-11T13:19:33;3.20;57.30
3548;DHT22;1788;49.400;11.092;2022-12-11T13:24:27;3.30;57.20
3548;DHT22;1788;49.400;11.092;2022-12-11T13:26:54;3.30;57.10
3548;DHT22;1788;49.400;11.092;2022-12-11T13:31:54;3.70;58.10
3548;DHT22;1788;49.400;11.092;2022-12-11T13:36:45;3.80;57.30
3548;DHT22;1788;49.400;11.092;2022-12-11T13:39:15;3.80;57.20
3548;DHT22;1788;49.400;11.092;2022-12-11T13:41:35;3.70;57.00
3548;DHT22;1788;49.400;11.092;2022-12-11T13:44:02;3.60;56.90
3548;DHT22;1788;49.400;11.092;2022-12-11T13:46:28;3.60;56.90
3548;DHT22;1788;49.400;11.092;2022-12-11T13:48:55;3.50;56.70
3548;DHT22;1788;49.400;11.092;2022-12-11T13:51:22;3.50;56.70
3548;DHT22;1788;49.400;11.092;2022-12-11T13:54:00;3.30;56.60
3548;DHT22;1788;49.400;11.092;2022-12-11T13:58:43;3.20;56.00
3548;DHT22;1788;49.400;11.092;2022-12-11T14:06:04;2.90;56.50
3548;DHT22;1788;49.400;11.092;2022-12-11T14:08:32;2.90;56.50
3548;DHT22;1788;49.400;11.092;2022-12-11T14:10:57;2.90;56.60
3548;DHT22;1788;49.400;11.092;2022-12-11T14:13:25;2.80;56.80
3548;DHT22;1788;49.400;11.092;2022-12-11T14:15:52;2.80;56.50
3548;DHT22;1788;49.400;11.092;2022-12-11T14:20:45;2.70;56.30
3548;DHT22;1788;49.400;11.092;2022-12-11T14:25:38;2.60;56.40
3548;DHT22;1788;49.400;11.092;2022-12-11T14:28:05;2.60;56.40
3548;DHT22;1788;49.400;11.092;2022-12-11T14:30:31;2.50;56.40
3548;DHT22;1788;49.400;11.092;2022-12-11T14:32:59;2.60;56.50
3548;DHT22;1788;49.400;11.092;2022-12-11T14:37:52;2.60;56.50
3548;DHT22;1788;49.400;11.092;2022-12-11T14:40:21;2.60;56.50
3548;DHT22;1788;49.400;11.092;2022-12-11T14:42:47;2.50;56.30
3548;DHT22;1788;49.400;11.092;2022-12-11T14:47:40;2.50;56.20
3548;DHT22;1788;49.400;11.092;2022-12-11T14:55:02;2.30;56.10
3548;DHT22;1788;49.400;11.092;2022-12-11T14:57:27;2.30;56.10
3548;DHT22;1788;49.400;11.092;2022-12-11T14:59:54;2.20;56.30
3548;DHT22;1788;49.400;11.092;2022-12-11T15:07:17;2.10;56.10
3548;DHT22;1788;49.400;11.092;2022-12-11T15:09:44;2.10;56.10
3548;DHT22;1788;49.400;11.092;2022-12-11T15:14:39;2.00;56.10
3548;DHT22;1788;49.400;11.092;2022-12-11T15:17:02;2.00;56.10
3548;DHT22;1788;49.400;11.092;2022-12-11T15:22:00;1.90;56.00
3548;DHT22;1788;49.400;11.092;2022-12-11T15:26:48;1.90;56.00
3548;DHT22;1788;49.400;11.092;2022-12-11T15:31:41;2.00;56.10
3548;DHT22;1788;49.400;11.092;2022-12-11T15:36:35;2.00;56.10
3548;DHT22;1788;49.400;11.092;2022-12-11T15:39:02;2.10;56.10
3548;DHT22;1788;49.400;11.092;2022-12-11T15:41:29;2.00;56.00
3548;DHT22;1788;49.400;11.092;2022-12-11T15:43:55;2.10;56.00
3548;DHT22;1788;49.400;11.092;2022-12-11T15:46:23;2.10;56.00
3548;DHT22;1788;49.400;11.092;2022-12-11T15:48:50;2.10;56.00
3548;DHT22;1788;49.400;11.092;2022-12-11T15:51:17;2.10;56.00
3548;DHT22;1788;49.400;11.092;2022-12-11T15:53:43;2.10;56.00
3548;DHT22;1788;49.400;11.092;2022-12-11T15:58:37;2.10;56.00
3548;DHT22;1788;49.400;11.092;2022-12-11T16:01:03;2.10;56.00
3548;DHT22;1788;49.400;11.092;2022-12-11T16:03:30;2.10;56.10
3548;DHT22;1788;49.400;11.092;2022-12-11T16:05:56;2.10;56.10
3548;DHT22;1788;49.400;11.092;2022-12-11T16:08:23;2.10;56.10
3548;DHT22;1788;49.400;11.092;2022-12-11T16:10:51;2.00;56.00
3548;DHT22;1788;49.400;11.092;2022-12-11T16:13:17;2.00;56.00
3548;DHT22;1788;49.400;11.092;2022-12-11T16:15:44;2.00;56.00
3548;DHT22;1788;49.400;11.092;2022-12-11T16:18:11;2.00;56.00
3548;DHT22;1788;49.400;11.092;2022-12-11T16:20:38;2.00;56.00
3548;DHT22;1788;49.400;11.092;2022-12-11T16:23:03;1.90;56.00
3548;DHT22;1788;49.400;11.092;2022-12-11T16:25:30;1.90;56.00
3548;DHT22;1788;49.400;11.092;2022-12-11T16:27:57;2.00;56.20
3548;DHT22;1788;49.400;11.092;2022-12-11T16:30:24;2.30;57.40
3548;DHT22;1788;49.400;11.092;2022-12-11T16:32:50;2.90;58.00
3548;DHT22;1788;49.400;11.092;2022-12-11T16:35:17;3.10;57.50
3548;DHT22;1788;49.400;11.092;2022-12-11T16:37:44;3.20;57.00
3548;DHT22;1788;49.400;11.092;2022-12-11T16:40:11;3.20;56.70
3548;DHT22;1788;49.400;11.092;2022-12-11T16:42:37;3.20;56.60
3548;DHT22;1788;49.400;11.092;2022-12-11T16:45:05;3.10;56.30
3548;DHT22;1788;49.400;11.092;2022-12-11T16:47:30;3.00;56.20
3548;DHT22;1788;49.400;11.092;2022-12-11T16:49:57;2.90;56.10
3548;DHT22;1788;49.400;11.092;2022-12-11T16:52:24;2.80;56.10
3548;DHT22;1788;49.400;11.092;2022-12-11T16:54:50;2.60;56.10
3548;DHT22;1788;49.400;11.092;2022-12-11T16:57:17;2.60;56.20
3548;DHT22;1788;49.400;11.092;2022-12-11T16:59:44;2.50;56.20
3548;DHT22;1788;49.400;11.092;2022-12-11T17:02:10;2.40;56.30
3548;DHT22;1788;49.400;11.092;2022-12-11T17:04:37;2.30;56.30
3548;DHT22;1788;49.400;11.092;2022-12-11T17:07:04;2.30;56.40
3548;DHT22;1788;49.400;11.092;2022-12-11T17:09:30;2.20;56.30
3548;DHT22;1788;49.400;11.092;2022-12-11T17:11:57;2.20;56.40
3548;DHT22;1788;49.400;11.092;2022-12-11T17:14:23;2.10;56.40
3548;DHT22;1788;49.400;11.092;2022-12-11T17:16:51;2.10;56.40
3548;DHT22;1788;49.400;11.092;2022-12-11T17:19:18;2.10;56.30
3548;DHT22;1788;49.400;11.092;2022-12-11T17:21:45;2.00;56.40
3548;DHT22;1788;49.400;11.092;2022-12-11T17:24:12;2.00;56.30
3548;DHT22;1788;49.400;11.092;2022-12-11T17:26:39;2.10;56.40
3548;DHT22;1788;49.400;11.092;2022-12-11T17:29:06;2.10;56.40
3548;DHT22;1788;49.400;11.092;2022-12-11T17:31:33;2.10;56.30
3548;DHT22;1788;49.400;11.092;2022-12-11T17:34:00;2.10;56.30
3548;DHT22;1788;49.400;11.092;2022-12-11T17:36:27;2.10;56.30
3548;DHT22;1788;49.400;11.092;2022-12-11T17:38:54;2.10;56.20
3548;DHT22;1788;49.400;11.092;2022-12-11T17:41:21;2.00;56.30
3548;DHT22;1788;49.400;11.092;2022-12-11T17:43:48;2.00;56.30
3548;DHT22;1788;49.400;11.092;2022-12-11T17:46:14;2.00;56.30
3548;DHT22;1788;49.400;11.092;2022-12-11T17:48:41;1.90;56.30
3548;DHT22;1788;49.400;11.092;2022-12-11T17:51:09;1.90;56.30
3548;DHT22;1788;49.400;11.092;2022-12-11T17:53:34;1.90;56.40
3548;DHT22;1788;49.400;11.092;2022-12-11T17:56:02;1.90;56.40
3548;DHT22;1788;49.400;11.092;2022-12-11T17:58:29;1.90;56.50
3548;DHT22;1788;49.400;11.092;2022-12-11T18:00:56;1.90;56.40
3548;DHT22;1788;49.400;11.092;2022-12-11T18:03:23;1.90;56.40
3548;DHT22;1788;49.400;11.092;2022-12-11T18:05:50;1.90;56.40
3548;DHT22;1788;49.400;11.092;2022-12-11T18:10:43;2.00;56.40
3548;DHT22;1788;49.400;11.092;2022-12-11T18:13:10;2.00;56.40
3548;DHT22;1788;49.400;11.092;2022-12-11T18:15:37;2.00;56.40
3548;DHT22;1788;49.400;11.092;2022-12-11T18:18:04;2.00;56.40
3548;DHT22;1788;49.400;11.092;2022-12-11T18:20:31;2.00;56.40
3548;DHT22;1788;49.400;11.092;2022-12-11T18:22:58;2.00;56.40
3548;DHT22;1788;49.400;11.092;2022-12-11T18:25:25;1.90;56.90
3548;DHT22;1788;49.400;11.092;2022-12-11T18:27:51;1.90;56.40
3548;DHT22;1788;49.400;11.092;2022-12-11T18:30:18;2.00;56.60
3548;DHT22;1788;49.400;11.092;2022-12-11T18:32:45;2.00;56.60
3548;DHT22;1788;49.400;11.092;2022-12-11T18:35:11;2.00;56.60
3548;DHT22;1788;49.400;11.092;2022-12-11T18:37:38;2.00;56.50
3548;DHT22;1788;49.400;11.092;2022-12-11T18:40:06;2.10;56.60
3548;DHT22;1788;49.400;11.092;2022-12-11T18:42:32;2.00;56.50
3548;DHT22;1788;49.400;11.092;2022-12-11T18:45:00;2.10;56.70
3548;DHT22;1788;49.400;11.092;2022-12-11T18:47:27;2.00;56.60
3548;DHT22;1788;49.400;11.092;2022-12-11T18:49:53;2.10;56.70
3548;DHT22;1788;49.400;11.092;2022-12-11T18:52:20;2.10;56.70
3548;DHT22;1788;49.400;11.092;2022-12-11T18:54:47;2.10;56.70
3548;DHT22;1788;49.400;11.092;2022-12-11T18:57:13;2.10;56.80
3548;DHT22;1788;49.400;11.092;2022-12-11T18:59:40;2.10;56.90
3548;DHT22;1788;49.400;11.092;2022-12-11T19:02:06;2.20;57.10
3548;DHT22;1788;49.400;11.092;2022-12-11T19:04:33;2.20;57.10
3548;DHT22;1788;49.400;11.092;2022-12-11T19:07:00;2.20;57.00
3548;DHT22;1788;49.400;11.092;2022-12-11T19:09:26;2.20;57.00
3548;DHT22;1788;49.400;11.092;2022-12-11T19:11:53;2.20;57.10
3548;DHT22;1788;49.400;11.092;2022-12-11T19:14:20;2.20;57.10
3548;DHT22;1788;49.400;11.092;2022-12-11T19:16:46;2.20;57.10
3548;DHT22;1788;49.400;11.092;2022-12-11T19:19:14;2.20;57.20